Dutch
Home     News     Corporate     Events & Tours     Flight ops     Crew centre      
My transavia virtual    Join us    Last logs    Who is flying    Forum    Software    Training    VRTS     
 

view flightdata
view flightplan
view OFP
view flightlog



flightdata:
pilot: Hubert Schepers
flight: TRA749
from: EGKK (London Gatwick)
to: EHRD (Rotterdam)
date: 01-01-2019
departure: 22:12z
arrival: 22:57z
duration: 0:44
aircraft: B737 (PHXRA)
distance: 220 NM
touchdown: -245 ft/m @ 123 KIAS



flightplan:
-(FPL-TRA749-IS
-B737/M-SDEFGHIJRWXYZ/LB1
-EGKK2227
-N0367F190 CLN L620 REDFA
-EHRD0043 EHAM
-PBN/A1B1C1D1L1O1S1 DOF/190101 REG/PHXRA EET/EHAA0024 SEL/JQEL RVR/200 OPR/TRA)



operational flightplan (OFP):
DISPATCH BRIEFING (TEL:
--------- --------- --------- --------- --------- --------- ---------  
PREDEPARTURE ATC CLEARANCE:
.
.
--------- --------- --------- --------- --------- --------- ---------  
OFP  1    01 JAN 19/22:12
                                    OBS  2807

TRA749     C/S TRA5575  EGKK/LGW   EHRD/RTM         CRZ SYS     CI 14
01 JAN 19  PH-XRA       1020/1020  1113/1118        GND DIST      219
           TAB:.....    CTOT:....  STA  1120        AIR DIST      219
                                                    AVG W/C         0
MAXIMUM    ZFW  55202  LAW  58604  TOW  64495       AVG ISA       M08
ESTIMATED  ZFW  54220  LAW  56780  TOW  58548       F-F FACTOR    0.0
ACTUAL     ZFW  .....  LAW  .....  TOW  .....
--------- --------- --------- --------- --------- --------- ---------
TRIP        1768   0043           .....  .....
CONT         169   0005           .....  .....
ALTN         740   0017  EHAM     .....  .....  ....
FINAL       1014   0030           .....  .....
ADDNL        637   0019           .....  .....
TANKERING                  
PLN TOF     3691   0135
DIFF        ....   ....
PLN TOF     ....   ....  (CORRECTED)   
EXTRA          0   ....                  
TOF         3691   ....                 
TAXI         200   ....                  
BLOCK       4528   ....        
--------- --------- --------- --------- --------- --------- ---------
REASON EXTRA FUEL      MATRIX FUEL:
O ECN-ECONAMICAL     O TMP-TEMPORARILY      O ATC-AIR TRAFFIC CNTRL
O FOB-FUEL ON.BOARD  O MSC-MISCELLANEOUS    O FPC-FLIGHT PLN CORR
O WXR-WEATHER        O TEC-TECHNICAL        ACT.CI/CRZ USED: . . .   

--------- --------- --------- --------- --------- --------- ---------

ZFW ZFW 1000 : PLN TOF   XXXXX/TRIP XXXXX 00 MIN HOLD DEST: 0 EXTRA
ZFW ZFW-1000 : PLN TOF   XXXXX/TRIP XXXXX
--------- --------- --------- --------- --------- --------- ---------
COMMANDERS NAME:                           SIGNATURE:

--------- --------- --------- --------- --------- --------- ---------
FROM:  EGKK ELEV203      TO: EHRD ELEV-14        ALTN: EHAM ELEV -11
ATC C/S     : TRA55TRA749             AVG ISA : M08
CO-ROUTE    :                        AVG TT  :   
FMC-RES FUEL: 1754                   AVG W/C :    0
CRZ ALT     : FL190                  FL310
CI          : CI 14                  FL200     360/000
                                     FL100

EGKK/08R N0367F190 CLN2Z CLN L620 REDFA REDF2R EHRD/24

--------- --------- --------- --------- --------- --------- ---------
.
.
--------- --------- --------- --------- --------- --------- ---------
RVSM ALT CHECK:  FL:...... LEFT: ...... STBY: ...... RIGHT: ......

--------- --------- --------- --------- --------- --------- ---------
DESTINATION ALTERNATE EHAM
--------- --------- --------- --------- --------- --------- ---------

--------- --------- --------- --------- --------- --------- ---------
--------- --------- --------- --------- --------- --------- ---------
ALTERNATE SUMMARY
--------- --------- --------- --------- --------- --------- ---------
      ALTN        DIST   LVL       WC TIME  FUEL VIA
      EHAM/27       64  FL090    0 0017   740 STD DCT AMS
INFO/EBOS/26       78  FL120    0 0019   834 COST1B COA COA3A
INFO/EBBR/25L      86  FL140    0 0021   899 WOOD1B WOODY WODY7A
INFO/EHBK/21      118  FL070    0 0028  1191 INKE1B INKET P57 OSGOS
                                           OSGO1M
--------- --------- --------- --------- --------- --------- ---------


-(FPL-TRA749-IS
-B737/M-SDE1FGHIJ1RWXYZ/LB1
-EGKK2227
-N0367F190 CLN L620 REDFA
-EHRD0043 EHAM
-PBN/A1B1C1D1L1O1S1 DOF/190101 REG/PHXRA EET/EHAA0024 SEL/JQEL RVR/200 OPR/TRA)

WEATHER BRIEFING - GENERATED 01 JAN 2019 22:12 UTC
--------------------------------------------------------------------------------

EGKK EHRD EHAM EBOS EBBR EHBK

--------------------------------------------------------------------------------
ORIGIN: EGKK (LONDON GATWICK)
--------------------------------------------------------------------------------
EGKK 012150Z 03007KT 9999 SCT040 06/02 Q1039

EGKK 011656Z 0118/0224 02006KT 9999 SCT040 PROB30 0204/0210 8000 PROB30 0217/0222 8000 PROB40 0222/0224 3000 BR


--------------------------------------------------------------------------------
DESTINATION: EHRD (ROTTERDAM)
--------------------------------------------------------------------------------
EHRD 012155Z AUTO 34014G24KT 300V030 9999 OVC047 06/M01 Q1034 NOSIG

EHRD 011721Z 0118/0224 34015KT 9999 SCT025 PROB30
      TEMPO 0118/0122 34020G30KT 7000 -SHRA FEW020TCU BKN025
      BECMG 0214/0217 34006KT


--------------------------------------------------------------------------------
ALTERNATE: EHAM (SCHIPHOL)
--------------------------------------------------------------------------------
EHAM 012155Z 33014KT 300V010 9999 VCSH FEW030 BKN049 06/00 Q1033 TEMPO 35021G31KT

EHAM 011719Z 0118/0224 34017KT 9999 SCT025 PROB30
      TEMPO 0118/0122 34021G31KT 7000 -SHRA FEW020TCU BKN025
      BECMG 0206/0209 36012KT
      BECMG 0213/0216 34007KT


--------------------------------------------------------------------------------
ALTERNATE: EBOS (OSTEND)
--------------------------------------------------------------------------------
EBOS 012150Z 36016KT 9999 -SHRA FEW022 BKN042 06/02 Q1036 NOSIG

EBOS 011700Z 0118/0224 35013KT 9999 FEW020TCU SCT045
      TEMPO 0118/0209 35015G25KT


--------------------------------------------------------------------------------
ALTERNATE: EBBR (BRUSSELS)
--------------------------------------------------------------------------------
EBBR 012150Z 34008KT 9999 FEW025 06/02 Q1034 NOSIG

EBBR 011700Z 0118/0224 34010KT 9999 FEW020TCU SCT045=  EDDL 011700Z 0118/0224 31011KT 9999 SCT030
      BECMG 0214/0216 33006KT


--------------------------------------------------------------------------------
ALTERNATE: EHBK (MAASTRICHT)
--------------------------------------------------------------------------------
EHBK 012155Z AUTO 31006KT 270V350 9999 OVC048 04/02 Q1032 NOSIG

EHBK 011719Z 0118/0224 30011KT 9999 BKN030 PROB30
      TEMPO 0118/0122 31013G23KT 7000 -SHRA FEW025TCU
      BECMG 0215/0218 33005KT


NOTAM BRIEFING - GENERATED 01 JAN 2019 22:12 UTC
--------------------------------------------------------------------------------

EGKK EHRD EHAM EHAM EBOS EBBR EHBK

--------------------------------------------------------------------------------
GLOBAL TRANSAVIA.COM VIRTUAL NOTAMS
--------------------------------------------------------------------------------
REF:NIL PLEASE CONTACT OPERATIONS IN CASE OF STRUCTURAL FLIGHTPLAN ERRORS ON FLIGHT-OPS@TRANSAVIA-VIRTUAL.COM
VALID:UFN

REF:NIL
PLEASE CHECK ACARS EVERY 10 MINUTES WHEN FLYING WITH SOUND OFF. AN NEW ACARS MESSAGE PRODUCE A SOUND SIGNAL UNTILL ITS READ. FLOWCONTROL DON'T RECEIVE MUCH REACTION ON OUTGOING ACARS MESSAGES ACCORDING FLIGHTSTATUS.
SOURCE: SPL/HV/OCC/
END VALID: UFN

REF:NIL
PLEASE CONTACT FLOWCONTROL IN CASE OF PROBLEMS WITH ROUTINGS
SOURCE: SPL/HV/OCC/
END VALID: UFN

REF:NIL
IN CASE OF ENGINE-OUT FLY V2 OR V2 20 MAX. UNTIL ABOVE MSA.
LEVEL-OFF AT AN ALTITUDE ROUNDED OFF TO THE FIRST 1000 FT OF THE HIGHEST MSA.
E.G: MSA EHAM; 1.7 AND 2.3 LEVEL-OFF 3000 FT. AFTER LANDING MAKE A REP TO OCC ON 131.975
SOURCE:SPL/HV/OCC
END VALID:UFN



flightlog:
Pilot : Hubert Schepers
Flight: TRA749
From  : EGKK London Gatwick
To    : EHRD Rotterdam

[FLIGHTLOG] 1.5.4
01-01-2019 22:13:26z, logging started
01-01-2019 22:15:01z, flaps set to 13%
01-01-2019 22:15:09z, flaps set to 25%
01-01-2019 22:15:12z, flaps set to 38%
01-01-2019 22:15:20z, take-off at 165 KIAS
01-01-2019 22:15:20z, pos report: 165 KIAS, 00 208 ft, heading 257, winds 302 @ 10 kts
01-01-2019 22:15:20z, flying OFFLINE
01-01-2019 22:15:20z, position: EGKK - London Gatwick
01-01-2019 22:15:24z, retracted gear at 174 KIAS and 86 ft AGL
01-01-2019 22:15:29z, flaps set to 25%
01-01-2019 22:15:32z, flaps set to 13%
01-01-2019 22:15:39z, flaps set to 0%
01-01-2019 22:28:27z, pos report: 265 KIAS, 14 599 ft, heading 051, winds 295 @ 25 kts
01-01-2019 22:43:28z, pos report: 265 KIAS, 14 601 ft, heading 099, winds 302 @ 25 kts
01-01-2019 22:48:41z, deployed spoilers
01-01-2019 22:54:14z, lowered gear at 175 KIAS and 809 ft AGL
01-01-2019 22:54:15z, flaps set to 13%
01-01-2019 22:54:22z, flaps set to 25%
01-01-2019 22:54:26z, flaps set to 38%
01-01-2019 22:55:18z, below glideslope
01-01-2019 22:57:07z, flaps set to 50%
01-01-2019 22:57:11z, flaps set to 62%
01-01-2019 22:57:13z, flaps set to 75%
01-01-2019 22:57:16z, flaps set to 87%
01-01-2019 22:57:21z, flaps set to 100%
01-01-2019 22:57:31z, touchdown: -245ft/m at 123 KIAS
01-01-2019 22:57:31z, pos report: 123 KIAS, -00 006 ft, heading 054, winds 300 @ 10 kts
01-01-2019 22:57:31z, flying OFFLINE
01-01-2019 22:57:31z, position: EHRD - Rotterdam
01-01-2019 22:57:51z, retracted spoilers
01-01-2019 22:57:29z, parking brake set
01-01-2019 22:58:08z, logging ended
01-01-2019 22:58:08z, this flight was flown offline

©2009-2019, transavia virtual. All rights reserved. This website is only meant for simulation purposes.
This website is not owned by transavia, nor is transavia responsible for the content of this website.